Airport View

Enter AWOS ICAO identifier for current METAR.

ex. KFNL

KSBD 212348Z 00000KT 10SM SKC 35/M03 A2979

22 Sep 2019 00:02

Frequency: 124.175

Phone: 909-382-0067

Other Area AWOS: KRIV - KRAL - KONT - KCNO

TAF KSBD 212320Z 2200/2224 25008KT P6SM SKC FM220300 VRB04KT P6SM SKC FM222100 25007KT P6SM SKC